createdAt,value
2018-07-20T00:00:23.717Z,100875.46
2018-07-20T00:02:52.825Z,100873.97
2018-07-20T00:05:21.921Z,100870.98
2018-07-20T00:07:51.017Z,100867.75
2018-07-20T00:10:20.102Z,100863.74
2018-07-20T00:12:49.193Z,100864.86
2018-07-20T00:15:18.289Z,100864.63
2018-07-20T00:17:47.381Z,100860.23
2018-07-20T00:20:16.485Z,100857.27
2018-07-20T00:22:45.577Z,100855.61
2018-07-20T00:25:14.666Z,100859.58
2018-07-20T00:27:43.807Z,100863.42
2018-07-20T00:30:12.893Z,100866.11
2018-07-20T00:32:42.139Z,100867.06
2018-07-20T00:35:11.254Z,100868.58
2018-07-20T00:37:40.353Z,100867.66
2018-07-20T00:40:09.469Z,100859.23
2018-07-20T00:42:38.553Z,100857.52
2018-07-20T00:45:07.932Z,100861.75
2018-07-20T00:47:37.021Z,100858.35
2018-07-20T00:50:06.878Z,100856.12
2018-07-20T00:52:35.965Z,100856.88
2018-07-20T00:55:05.137Z,100859.70
2018-07-20T00:57:34.236Z,100860.09
2018-07-20T01:00:03.377Z,100862.27
2018-07-20T01:02:32.469Z,100858.84
2018-07-20T01:05:01.553Z,100854.52
2018-07-20T01:07:30.651Z,100854.11
2018-07-20T01:09:59.738Z,100850.83
2018-07-20T01:12:28.825Z,100851.02
2018-07-20T01:14:57.929Z,100850.00
2018-07-20T01:17:27.065Z,100850.60
2018-07-20T01:19:56.181Z,100848.27
2018-07-20T01:22:25.285Z,100846.91
2018-07-20T01:24:54.385Z,100850.00
2018-07-20T01:27:23.477Z,100851.77
2018-07-20T01:29:52.573Z,100848.91
2018-07-20T01:32:21.674Z,100849.05
2018-07-20T01:34:50.790Z,100856.98
2018-07-20T01:37:19.933Z,100850.82
2018-07-20T01:39:49.013Z,100850.24
2018-07-20T01:42:18.394Z,100857.46
2018-07-20T01:44:47.502Z,100848.48
2018-07-20T01:47:16.637Z,100850.24
2018-07-20T01:49:45.713Z,100845.41
2018-07-20T01:52:14.812Z,100845.90
2018-07-20T01:54:43.921Z,100847.70
2018-07-20T01:57:13.005Z,100853.46
2018-07-20T01:59:42.125Z,100847.53
2018-07-20T02:02:11.221Z,100845.08
2018-07-20T02:04:40.313Z,100852.03
2018-07-20T02:07:09.417Z,100850.00
2018-07-20T02:09:39.355Z,100850.14
2018-07-20T02:12:08.477Z,100844.87
2018-07-20T02:14:37.557Z,100842.66
2018-07-20T02:17:06.641Z,100844.25
2018-07-20T02:19:35.739Z,100844.21
2018-07-20T02:22:04.853Z,100838.08
2018-07-20T02:24:34.196Z,100835.77
2018-07-20T02:27:03.493Z,100837.18
2018-07-20T02:29:32.600Z,100835.34
2018-07-20T02:32:01.674Z,100831.75
2018-07-20T02:34:30.765Z,100833.83
2018-07-20T02:37:00.930Z,100829.28
2018-07-20T02:39:30.030Z,100824.61
2018-07-20T02:41:59.122Z,100825.55
2018-07-20T02:44:28.210Z,100827.48
2018-07-20T02:46:57.290Z,100821.39
2018-07-20T02:49:26.400Z,100823.59
2018-07-20T02:51:55.493Z,100821.28
2018-07-20T02:54:24.574Z,100820.64
2018-07-20T02:56:53.685Z,100812.94
2018-07-20T02:59:22.805Z,100814.84
2018-07-20T03:01:51.913Z,100813.56
2018-07-20T03:04:21.009Z,100816.25
2018-07-20T03:06:50.097Z,100818.01
2018-07-20T03:09:19.450Z,100816.52
2018-07-20T03:11:48.546Z,100815.00
2018-07-20T03:14:17.713Z,100811.41
2018-07-20T03:16:46.794Z,100811.41
2018-07-20T03:19:15.890Z,100805.19
2018-07-20T03:21:44.990Z,100814.04
2018-07-20T03:24:14.081Z,100815.77
2018-07-20T03:26:43.217Z,100805.70
2018-07-20T03:29:12.301Z,100810.25
2018-07-20T03:31:41.521Z,100812.94
2018-07-20T03:34:10.613Z,100818.40
2018-07-20T03:36:39.717Z,100817.01
2018-07-20T03:39:09.735Z,100815.51
2018-07-20T03:41:39.200Z,100819.75
2018-07-20T03:44:08.729Z,100816.98
2018-07-20T03:46:37.905Z,100813.23
2018-07-20T03:49:07.069Z,100812.09
2018-07-20T03:51:36.105Z,100810.52
2018-07-20T03:54:05.229Z,100809.74
2018-07-20T03:56:34.320Z,100807.89
2018-07-20T03:59:03.427Z,100806.87
2018-07-20T04:01:32.521Z,100806.69
2018-07-20T04:04:01.617Z,100806.76
2018-07-20T04:06:30.705Z,100806.31
2018-07-20T04:08:59.819Z,100800.45
2018-07-20T04:11:28.914Z,100802.81
2018-07-20T04:13:58.007Z,100808.27
2018-07-20T04:16:27.119Z,100801.79
2018-07-20T04:18:56.237Z,100800.52
2018-07-20T04:21:25.669Z,100798.75
2018-07-20T04:23:54.765Z,100797.41
2018-07-20T04:26:23.868Z,100798.97
2018-07-20T04:28:52.964Z,100795.31
2018-07-20T04:31:22.054Z,100792.91
2018-07-20T04:33:51.157Z,100797.97
2018-07-20T04:36:20.314Z,100792.91
2018-07-20T04:38:49.477Z,100790.40
2018-07-20T04:41:18.729Z,100788.91
2018-07-20T04:43:47.870Z,100784.86
2018-07-20T04:46:17.005Z,100790.53
2018-07-20T04:48:46.093Z,100792.23
2018-07-20T04:51:15.197Z,100782.33
2018-07-20T04:53:44.281Z,100790.95
2018-07-20T04:56:13.428Z,100786.47
2018-07-20T04:58:42.588Z,100783.84
2018-07-20T05:01:11.625Z,100786.56
2018-07-20T05:03:40.751Z,100782.11
2018-07-20T05:06:09.819Z,100780.89
2018-07-20T05:08:38.917Z,100779.67
2018-07-20T05:11:08.031Z,100779.48
2018-07-20T05:13:37.125Z,100785.51
2018-07-20T05:16:06.261Z,100779.31
2018-07-20T05:18:35.350Z,100784.09
2018-07-20T05:21:04.433Z,100780.11
2018-07-20T05:23:33.558Z,100783.16
2018-07-20T05:26:02.661Z,100789.05
2018-07-20T05:28:31.825Z,100783.50
2018-07-20T05:31:00.989Z,100784.47
2018-07-20T05:33:30.080Z,100778.66
2018-07-20T05:35:59.192Z,100779.77
2018-07-20T05:38:28.333Z,100779.42
2018-07-20T05:40:57.421Z,100778.55
2018-07-20T05:43:26.539Z,100785.55
2018-07-20T05:45:55.613Z,100777.77
2018-07-20T05:48:24.749Z,100776.38
2018-07-20T05:50:53.854Z,100772.30
2018-07-20T05:53:22.982Z,100772.16
2018-07-20T05:55:52.059Z,100774.13
2018-07-20T05:58:21.201Z,100772.50
2018-07-20T06:00:50.347Z,100773.72
2018-07-20T06:03:19.490Z,100766.23
2018-07-20T06:05:48.597Z,100769.31
2018-07-20T06:08:17.698Z,100770.41
2018-07-20T06:10:46.819Z,100774.97
2018-07-20T06:13:15.905Z,100776.63
2018-07-20T06:15:45.018Z,100769.25
2018-07-20T06:18:14.113Z,100767.44
2018-07-20T06:20:43.241Z,100773.21
2018-07-20T06:23:12.374Z,100776.77
2018-07-20T06:25:41.509Z,100775.70
2018-07-20T06:28:10.618Z,100780.45
2018-07-20T06:30:39.734Z,100779.69
2018-07-20T06:33:08.844Z,100771.07
2018-07-20T06:35:37.973Z,100783.42
2018-07-20T06:38:07.516Z,100771.90
2018-07-20T06:40:36.764Z,100767.84
2018-07-20T06:43:05.827Z,100768.02
2018-07-20T06:45:34.953Z,100770.29
2018-07-20T06:48:04.039Z,100767.12
2018-07-20T06:50:33.137Z,100769.25
2018-07-20T06:53:02.253Z,100763.36
2018-07-20T06:55:31.389Z,100762.90
2018-07-20T06:58:00.495Z,100761.83
2018-07-20T07:00:29.600Z,100764.22
2018-07-20T07:02:58.698Z,100766.86
2018-07-20T07:05:27.824Z,100762.34
2018-07-20T07:07:56.921Z,100762.88
2018-07-20T07:10:26.026Z,100766.67
2018-07-20T07:12:55.581Z,100769.27
2018-07-20T07:15:24.703Z,100759.30
2018-07-20T07:17:53.793Z,100764.61
2018-07-20T07:20:23.018Z,100764.82
2018-07-20T07:22:52.182Z,100767.75
2018-07-20T07:25:21.310Z,100758.97
2018-07-20T07:27:50.407Z,100763.70
2018-07-20T07:30:19.525Z,100762.85
2018-07-20T07:32:48.633Z,100755.28
2018-07-20T07:35:17.745Z,100764.77
2018-07-20T07:37:46.861Z,100754.98
2018-07-20T07:40:16.034Z,100751.03
2018-07-20T07:42:45.124Z,100750.02
2018-07-20T07:45:14.271Z,100751.97
2018-07-20T07:47:43.349Z,100745.91
2018-07-20T07:50:12.465Z,100744.56
2018-07-20T07:52:41.613Z,100744.84
2018-07-20T07:55:10.717Z,100745.34
2018-07-20T07:57:39.799Z,100747.66
2018-07-20T08:00:08.909Z,100748.13
2018-07-20T08:02:38.014Z,100742.19
2018-07-20T08:05:07.353Z,100744.77
2018-07-20T08:07:36.513Z,100740.80
2018-07-20T08:10:05.833Z,100737.11
2018-07-20T08:12:34.801Z,100741.50
2018-07-20T08:15:03.990Z,100732.67
2018-07-20T08:17:33.149Z,100729.03
2018-07-20T08:20:02.276Z,100729.23
2018-07-20T08:22:31.409Z,100725.45
2018-07-20T08:25:00.517Z,100720.31
2018-07-20T08:27:29.657Z,100714.13
2018-07-20T08:29:58.765Z,100709.86
2018-07-20T08:32:27.901Z,100711.25
2018-07-20T08:34:57.016Z,100694.25
2018-07-20T08:37:26.150Z,100705.05
2018-07-20T08:39:55.513Z,100704.69
2018-07-20T08:42:24.837Z,100701.61
2018-07-20T08:44:53.984Z,100702.77
2018-07-20T08:47:23.097Z,100696.30
2018-07-20T08:49:52.216Z,100691.51
2018-07-20T08:52:21.326Z,100689.33
2018-07-20T08:54:50.477Z,100690.97
2018-07-20T08:57:19.601Z,100684.23
2018-07-20T08:59:48.826Z,100683.53
2018-07-20T09:02:17.919Z,100683.48
2018-07-20T09:04:47.041Z,100684.16
2018-07-20T09:07:16.192Z,100682.11
2018-07-20T09:09:45.284Z,100680.92
2018-07-20T09:12:14.486Z,100675.48
2018-07-20T09:14:43.685Z,100673.39
2018-07-20T09:17:12.829Z,100666.34
2018-07-20T09:19:41.945Z,100671.55
2018-07-20T09:22:11.029Z,100665.86
2018-07-20T09:24:40.172Z,100668.41
2018-07-20T09:27:09.317Z,100670.48
2018-07-20T09:29:38.432Z,100670.19
2018-07-20T09:32:07.537Z,100670.62
2018-07-20T09:34:36.624Z,100662.69
2018-07-20T09:37:05.973Z,100664.41
2018-07-20T09:39:35.057Z,100659.42
2018-07-20T09:42:04.185Z,100660.02
2018-07-20T09:44:33.281Z,100663.10
2018-07-20T09:47:02.369Z,100662.69
2018-07-20T09:49:31.481Z,100653.98
2018-07-20T09:52:00.577Z,100658.01
2018-07-20T09:54:29.676Z,100660.89
2018-07-20T09:56:58.786Z,100660.55
2018-07-20T09:59:27.872Z,100653.61
2018-07-20T10:01:57.058Z,100651.57
2018-07-20T10:04:26.177Z,100650.87
2018-07-20T10:06:55.318Z,100648.95
2018-07-20T10:09:24.407Z,100651.21
2018-07-20T10:11:53.515Z,100649.53
2018-07-20T10:14:22.606Z,100638.38
2018-07-20T10:16:51.713Z,100638.64
2018-07-20T10:19:20.855Z,100628.56
2018-07-20T10:21:49.949Z,100626.20
2018-07-20T10:24:19.097Z,100622.45
2018-07-20T10:26:48.200Z,100619.95
2018-07-20T10:29:17.286Z,100617.22
2018-07-20T10:31:46.386Z,100617.28
2018-07-20T10:34:15.485Z,100621.66
2018-07-20T10:36:44.678Z,100614.45
2018-07-20T10:39:13.721Z,100610.41
2018-07-20T10:41:42.821Z,100607.22
2018-07-20T10:44:11.936Z,100604.25
2018-07-20T10:46:41.026Z,100606.05
2018-07-20T10:49:10.186Z,100607.02
2018-07-20T10:51:39.304Z,100604.97
2018-07-20T10:54:08.434Z,100601.23
2018-07-20T10:56:37.549Z,100599.61
2018-07-20T10:59:06.657Z,100595.25
2018-07-20T11:01:35.883Z,100597.39
2018-07-20T11:04:04.949Z,100591.73
2018-07-20T11:06:34.365Z,100585.67
2018-07-20T11:09:03.974Z,100580.34
2018-07-20T11:11:33.065Z,100585.22
2018-07-20T11:14:02.215Z,100571.66
2018-07-20T11:16:31.297Z,100579.45
2018-07-20T11:19:00.441Z,100568.78
2018-07-20T11:21:29.533Z,100565.25
2018-07-20T11:23:58.632Z,100570.27
2018-07-20T11:26:27.705Z,100560.92
2018-07-20T11:28:56.793Z,100564.98
2018-07-20T11:31:25.901Z,100558.88
2018-07-20T11:33:54.986Z,100556.97
2018-07-20T11:36:24.141Z,100543.50
2018-07-20T11:38:53.309Z,100541.98
2018-07-20T11:41:22.400Z,100542.88
2018-07-20T11:43:51.508Z,100539.92
2018-07-20T11:46:20.605Z,100541.72
2018-07-20T11:48:49.833Z,100535.78
2018-07-20T11:51:18.925Z,100537.88
2018-07-20T11:53:48.129Z,100530.62
2018-07-20T11:56:17.216Z,100526.77
2018-07-20T11:58:46.357Z,100512.75
2018-07-20T12:01:15.475Z,100511.80
2018-07-20T12:03:44.609Z,100511.75
2018-07-20T12:06:13.721Z,100525.67
2018-07-20T12:08:42.865Z,100510.37
2018-07-20T12:11:12.006Z,100510.05
2018-07-20T12:13:41.221Z,100516.72
2018-07-20T12:16:10.313Z,100508.73
2018-07-20T12:18:39.442Z,100507.19
2018-07-20T12:21:08.542Z,100503.52
2018-07-20T12:23:37.632Z,100501.66
2018-07-20T12:26:06.769Z,100504.51
2018-07-20T12:28:36.913Z,100500.95
2018-07-20T12:31:06.015Z,100499.36
2018-07-20T12:33:35.109Z,100501.19
2018-07-20T12:36:04.257Z,100499.40
2018-07-20T12:38:33.355Z,100494.76
2018-07-20T12:41:02.432Z,100494.63
2018-07-20T12:43:31.530Z,100494.00
2018-07-20T12:46:00.681Z,100493.05
2018-07-20T12:48:29.765Z,100494.00
2018-07-20T12:50:58.867Z,100495.98
2018-07-20T12:53:27.988Z,100488.09
2018-07-20T12:55:57.113Z,100486.02
2018-07-20T12:58:26.312Z,100487.72
2018-07-20T13:00:55.376Z,100476.80
2018-07-20T13:03:24.461Z,100476.09
2018-07-20T13:05:53.854Z,100480.46
2018-07-20T13:08:23.153Z,100469.14
2018-07-20T13:10:52.458Z,100472.73
2018-07-20T13:13:21.658Z,100472.16
2018-07-20T13:15:50.757Z,100470.94
2018-07-20T13:18:19.942Z,100471.72
2018-07-20T13:20:49.085Z,100476.11
2018-07-20T13:23:18.192Z,100470.27
2018-07-20T13:25:47.281Z,100463.48
2018-07-20T13:28:16.362Z,100464.58
2018-07-20T13:30:45.454Z,100463.47
2018-07-20T13:33:15.062Z,100461.39
2018-07-20T13:35:45.061Z,100464.14
2018-07-20T13:38:15.781Z,100455.19
2018-07-20T13:40:44.910Z,100449.17
2018-07-20T13:43:14.109Z,100451.27
2018-07-20T13:45:43.246Z,100441.19
2018-07-20T13:48:12.325Z,100434.55
2018-07-20T13:50:41.429Z,100439.85
2018-07-20T13:53:10.548Z,100444.22
2018-07-20T13:55:39.653Z,100432.94
2018-07-20T13:58:08.729Z,100428.73
2018-07-20T14:00:37.837Z,100428.19
2018-07-20T14:03:06.969Z,100419.64
2018-07-20T14:05:36.137Z,100422.19
2018-07-20T14:08:05.258Z,100418.86
2018-07-20T14:10:34.539Z,100417.39
2018-07-20T14:13:03.659Z,100414.55
2018-07-20T14:15:32.781Z,100399.45
2018-07-20T14:18:01.872Z,100396.64
2018-07-20T14:20:31.025Z,100398.59
2018-07-20T14:23:00.109Z,100393.34
2018-07-20T14:25:29.197Z,100389.55
2018-07-20T14:27:58.305Z,100383.59
2018-07-20T14:30:27.413Z,100388.38
2018-07-20T14:32:56.517Z,100389.63
2018-07-20T14:35:25.726Z,100383.29
2018-07-20T14:37:54.845Z,100380.44
2018-07-20T14:40:23.961Z,100381.95
2018-07-20T14:42:53.061Z,100375.52
2018-07-20T14:45:22.241Z,100377.75
2018-07-20T14:47:51.340Z,100367.10
2018-07-20T14:50:20.433Z,100373.97
2018-07-20T14:52:49.621Z,100369.13
2018-07-20T14:55:18.730Z,100366.44
2018-07-20T14:57:50.681Z,100364.41
2018-07-20T15:00:19.871Z,100362.60
2018-07-20T15:02:48.958Z,100360.49
2018-07-20T15:05:18.065Z,100357.97
2018-07-20T15:07:47.165Z,100365.51
2018-07-20T15:10:16.261Z,100357.01
2018-07-20T15:12:45.405Z,100351.73
2018-07-20T15:15:14.537Z,100347.09
2018-07-20T15:17:43.677Z,100345.84
2018-07-20T15:20:12.809Z,100344.63
2018-07-20T15:22:41.930Z,100345.40
2018-07-20T15:25:11.037Z,100347.24
2018-07-20T15:27:40.162Z,100340.12
2018-07-20T15:30:09.266Z,100336.52
2018-07-20T15:32:38.373Z,100337.38
2018-07-20T15:35:07.469Z,100343.23
2018-07-20T15:37:36.709Z,100332.83
2018-07-20T15:40:05.841Z,100332.49
2018-07-20T15:42:34.962Z,100327.81
2018-07-20T15:45:04.226Z,100330.31
2018-07-20T15:47:33.421Z,100330.70
2018-07-20T15:50:02.406Z,100331.83
2018-07-20T15:55:00.577Z,100331.95
2018-07-20T15:57:30.007Z,100322.84
2018-07-20T15:59:59.175Z,100326.30
2018-07-20T16:02:28.221Z,100323.41
2018-07-20T16:04:57.315Z,100331.09
2018-07-20T16:07:26.433Z,100329.81
2018-07-20T16:09:55.533Z,100322.92
2018-07-20T16:12:24.657Z,100328.44
2018-07-20T16:14:53.756Z,100321.63
2018-07-20T16:17:22.895Z,100324.42
2018-07-20T16:19:52.073Z,100321.41
2018-07-20T16:22:21.158Z,100314.80
2018-07-20T16:24:50.280Z,100319.38
2018-07-20T16:27:19.361Z,100313.72
2018-07-20T16:29:48.444Z,100313.98
2018-07-20T16:32:17.612Z,100310.38
2018-07-20T16:34:46.758Z,100315.48
2018-07-20T16:37:15.878Z,100310.61
2018-07-20T16:39:45.121Z,100313.04
2018-07-20T16:42:14.253Z,100305.88
2018-07-20T16:44:43.341Z,100309.62
2018-07-20T16:47:12.545Z,100307.25
2018-07-20T16:49:41.609Z,100315.83
2018-07-20T16:52:10.729Z,100306.06
2018-07-20T16:54:39.827Z,100312.69
2018-07-20T16:57:09.217Z,100321.09
2018-07-20T16:59:38.356Z,100320.06
2018-07-20T17:02:07.505Z,100333.64
2018-07-20T17:04:36.600Z,100349.41
2018-07-20T17:07:05.882Z,100378.91
2018-07-20T17:09:34.963Z,100374.34
2018-07-20T17:12:04.066Z,100386.89
2018-07-20T17:14:33.281Z,100395.58
2018-07-20T17:17:02.391Z,100396.22
2018-07-20T17:19:31.503Z,100401.55
2018-07-20T17:22:00.649Z,100405.66
2018-07-20T17:24:29.805Z,100400.27
2018-07-20T17:26:58.913Z,100397.93
2018-07-20T17:29:28.154Z,100399.62
2018-07-20T17:31:57.261Z,100388.05
2018-07-20T17:34:26.408Z,100389.45
2018-07-20T17:36:55.496Z,100389.08
2018-07-20T17:39:24.675Z,100389.05
2018-07-20T17:41:54.357Z,100385.52
2018-07-20T17:44:23.441Z,100387.58
2018-07-20T17:46:52.558Z,100387.05
2018-07-20T17:49:21.669Z,100395.28
2018-07-20T17:51:50.831Z,100400.26
2018-07-20T17:54:19.974Z,100398.47
2018-07-20T17:56:49.116Z,100403.73
2018-07-20T17:59:18.226Z,100407.38
2018-07-20T18:01:47.317Z,100405.58
2018-07-20T18:04:16.441Z,100404.02
2018-07-20T18:06:45.536Z,100397.30
2018-07-20T18:09:14.685Z,100403.75
2018-07-20T18:11:43.789Z,100402.97
2018-07-20T18:14:12.897Z,100406.48
2018-07-20T18:16:42.352Z,100413.58
2018-07-20T18:19:11.455Z,100416.98
2018-07-20T18:21:40.562Z,100411.54
2018-07-20T18:24:09.682Z,100412.23
2018-07-20T18:26:38.777Z,100416.73
2018-07-20T18:29:07.929Z,100416.89
2018-07-20T18:31:37.102Z,100416.53
2018-07-20T18:34:06.280Z,100418.55
2018-07-20T18:36:35.406Z,100416.70
2018-07-20T18:39:07.945Z,100418.64
2018-07-20T18:41:37.497Z,100430.28
2018-07-20T18:44:06.738Z,100430.65
2018-07-20T18:46:36.122Z,100428.50
2018-07-20T18:49:05.277Z,100426.67
2018-07-20T18:51:34.417Z,100426.03
2018-07-20T18:54:03.509Z,100425.04
2018-07-20T18:56:32.598Z,100424.76
2018-07-20T18:59:01.697Z,100412.62
2018-07-20T19:01:30.836Z,100416.80
2018-07-20T19:03:59.973Z,100405.84
2018-07-20T19:06:29.541Z,100398.22
2018-07-20T19:08:58.665Z,100391.66
2018-07-20T19:11:27.813Z,100397.66
2018-07-20T19:13:56.861Z,100398.14
2018-07-20T19:16:25.957Z,100401.15
2018-07-20T19:18:55.089Z,100399.64
2018-07-20T19:21:26.166Z,100409.34
2018-07-20T19:23:55.596Z,100409.31
2018-07-20T19:26:24.637Z,100413.11
2018-07-20T19:28:53.748Z,100413.29
2018-07-20T19:31:22.941Z,100416.86
2018-07-20T19:33:52.094Z,100407.50
2018-07-20T19:36:21.185Z,100421.05
2018-07-20T19:38:50.320Z,100423.10
2018-07-20T19:41:19.441Z,100428.76
2018-07-20T19:43:48.533Z,100422.19
2018-07-20T19:46:17.650Z,100418.81
2018-07-20T19:48:46.847Z,100418.20
2018-07-20T19:51:15.956Z,100421.78
2018-07-20T19:53:45.038Z,100423.48
2018-07-20T19:56:14.169Z,100426.67
2018-07-20T19:58:43.299Z,100421.33
2018-07-20T20:01:12.409Z,100414.49
2018-07-20T20:03:41.566Z,100422.66
2018-07-20T20:06:10.713Z,100419.09
2018-07-20T20:08:39.841Z,100417.14
2018-07-20T20:11:09.186Z,100414.58
2018-07-20T20:13:38.294Z,100414.22
2018-07-20T20:16:07.411Z,100414.64
2018-07-20T20:18:36.677Z,100421.64
2018-07-20T20:21:05.937Z,100415.98
2018-07-20T20:23:35.021Z,100417.05
2018-07-20T20:26:04.140Z,100412.15
2018-07-20T20:28:33.562Z,100420.09
2018-07-20T20:34:00.597Z,100420.17
2018-07-20T20:36:29.743Z,100409.41
2018-07-20T20:38:59.123Z,100410.31
2018-07-20T20:41:28.232Z,100414.70
2018-07-20T20:43:57.472Z,100417.03
2018-07-20T20:46:26.541Z,100417.69
2018-07-20T20:48:55.781Z,100421.42
2018-07-20T20:51:24.998Z,100418.51
2018-07-20T20:53:54.126Z,100415.39
2018-07-20T20:56:23.277Z,100418.80
2018-07-20T20:58:52.420Z,100421.03
2018-07-20T21:01:21.501Z,100427.33
2018-07-20T21:03:50.621Z,100431.67
2018-07-20T21:06:19.737Z,100430.87
2018-07-20T21:08:48.863Z,100429.68
2018-07-20T21:11:19.753Z,100419.81
2018-07-20T21:13:48.908Z,100421.94
2018-07-20T21:16:18.319Z,100417.41
2018-07-20T21:18:47.585Z,100421.16
2018-07-20T21:21:16.794Z,100417.70
2018-07-20T21:23:45.966Z,100413.69
2018-07-20T21:26:15.113Z,100406.94
2018-07-20T21:28:44.240Z,100405.39
2018-07-20T21:31:13.333Z,100406.64
2018-07-20T21:33:43.281Z,100404.40
2018-07-20T21:36:12.429Z,100399.70
2018-07-20T21:38:41.596Z,100394.00
2018-07-20T21:41:10.797Z,100392.32
2018-07-20T21:43:39.920Z,100390.27
2018-07-20T21:46:09.075Z,100394.80
2018-07-20T21:48:38.212Z,100397.38
2018-07-20T21:51:07.669Z,100393.59
2018-07-20T21:53:36.801Z,100393.02
2018-07-20T21:56:05.917Z,100395.56
2018-07-20T21:58:35.034Z,100398.94
2018-07-20T22:01:04.250Z,100399.11
2018-07-20T22:03:33.329Z,100406.42
2018-07-20T22:06:02.429Z,100413.45
2018-07-20T22:08:31.518Z,100403.83
2018-07-20T22:11:00.713Z,100402.33
2018-07-20T22:13:29.834Z,100400.22
2018-07-20T22:15:58.934Z,100394.52
2018-07-20T22:18:28.022Z,100392.56
2018-07-20T22:20:57.134Z,100389.63
2018-07-20T22:23:26.277Z,100396.52
2018-07-20T22:25:55.403Z,100395.66
2018-07-20T22:28:24.533Z,100392.91
2018-07-20T22:30:53.637Z,100400.49
2018-07-20T22:33:22.748Z,100394.28
2018-07-20T22:35:51.867Z,100403.16
2018-07-20T22:38:20.988Z,100399.41
2018-07-20T22:40:50.105Z,100400.28
2018-07-20T22:43:19.225Z,100397.29
2018-07-20T22:45:48.334Z,100395.44
2018-07-20T22:48:17.447Z,100400.43
2018-07-20T22:50:46.569Z,100400.17
2018-07-20T22:53:15.645Z,100404.65
2018-07-20T22:55:44.738Z,100400.78
2018-07-20T22:58:13.857Z,100404.61
2018-07-20T23:00:42.961Z,100392.32
2018-07-20T23:03:12.105Z,100392.56
2018-07-20T23:05:41.190Z,100397.30
2018-07-20T23:08:10.286Z,100397.27
2018-07-20T23:10:39.389Z,100401.44
2018-07-20T23:13:08.491Z,100390.92
2018-07-20T23:15:37.637Z,100402.86
2018-07-20T23:18:07.010Z,100397.17
2018-07-20T23:20:36.148Z,100394.92
2018-07-20T23:23:05.269Z,100392.81
2018-07-20T23:25:34.369Z,100394.73
2018-07-20T23:28:03.534Z,100394.20
2018-07-20T23:30:32.672Z,100392.71
2018-07-20T23:33:01.741Z,100385.23
2018-07-20T23:35:30.862Z,100392.55
2018-07-20T23:37:59.969Z,100397.50
2018-07-20T23:40:29.104Z,100406.07
2018-07-20T23:42:58.213Z,100397.05
2018-07-20T23:45:27.333Z,100401.47
2018-07-20T23:47:56.458Z,100394.30
2018-07-20T23:50:25.577Z,100391.95
2018-07-20T23:52:54.702Z,100389.04
2018-07-20T23:55:23.840Z,100390.85
2018-07-20T23:57:53.006Z,100384.33
